createdAt,value
2022-07-27T00:01:26.264Z,42.50
2022-07-27T00:03:53.134Z,42.10
2022-07-27T00:06:19.979Z,42.10
2022-07-27T00:08:46.722Z,41.70
2022-07-27T00:11:13.634Z,41.40
2022-07-27T00:13:40.940Z,41.20
2022-07-27T00:16:07.855Z,41.10
2022-07-27T00:18:34.656Z,40.90
2022-07-27T00:21:01.421Z,40.60
2022-07-27T00:23:28.165Z,40.40
2022-07-27T00:25:55.002Z,40.40
2022-07-27T00:28:21.809Z,40.40
2022-07-27T00:30:48.593Z,40.20
2022-07-27T00:33:17.246Z,40.00
2022-07-27T00:35:44.409Z,39.90
2022-07-27T00:38:11.153Z,39.80
2022-07-27T00:40:37.959Z,39.60
2022-07-27T00:43:04.722Z,39.60
2022-07-27T00:45:31.513Z,39.60
2022-07-27T00:47:58.359Z,39.40
2022-07-27T00:50:25.102Z,39.50
2022-07-27T00:52:51.959Z,39.20
2022-07-27T00:55:18.720Z,39.20
2022-07-27T00:57:53.273Z,39.10
2022-07-27T01:00:26.192Z,39.10
2022-07-27T01:02:53.020Z,38.90
2022-07-27T01:05:20.300Z,38.90
2022-07-27T01:07:47.829Z,38.80
2022-07-27T01:10:14.613Z,38.70
2022-07-27T01:12:41.427Z,38.70
2022-07-27T01:15:08.315Z,38.50
2022-07-27T01:17:35.487Z,38.40
2022-07-27T01:20:02.229Z,38.50
2022-07-27T01:22:29.017Z,38.30
2022-07-27T01:24:55.801Z,38.40
2022-07-27T01:27:22.605Z,38.20
2022-07-27T01:29:49.394Z,38.10
2022-07-27T01:32:16.201Z,38.10
2022-07-27T01:34:42.935Z,38.10
2022-07-27T01:37:09.683Z,38.00
2022-07-27T01:39:36.471Z,37.90
2022-07-27T01:42:03.624Z,38.00
2022-07-27T01:44:30.400Z,37.80
2022-07-27T01:46:57.139Z,37.80
2022-07-27T01:49:24.012Z,37.70
2022-07-27T01:51:50.864Z,37.70
2022-07-27T01:54:18.098Z,37.60
2022-07-27T01:56:44.904Z,37.60
2022-07-27T01:59:16.851Z,37.50
2022-07-27T02:01:44.496Z,37.60
2022-07-27T02:04:11.400Z,37.50
2022-07-27T02:06:38.184Z,37.60
2022-07-27T02:09:04.958Z,37.60
2022-07-27T02:11:50.408Z,37.70
2022-07-27T02:14:17.168Z,37.40
2022-07-27T02:16:43.996Z,37.50
2022-07-27T02:19:12.029Z,37.50
2022-07-27T02:21:39.072Z,37.50
2022-07-27T02:24:06.105Z,37.60
2022-07-27T02:26:32.920Z,37.40
2022-07-27T02:28:59.692Z,37.40
2022-07-27T02:31:26.638Z,37.50
2022-07-27T02:33:59.561Z,37.90
2022-07-27T02:36:29.233Z,40.50
2022-07-27T02:38:56.411Z,41.10
2022-07-27T02:41:23.219Z,40.30
2022-07-27T02:43:49.968Z,40.10
2022-07-27T02:46:16.813Z,40.00
2022-07-27T02:48:43.718Z,39.90
2022-07-27T02:51:10.535Z,39.70
2022-07-27T02:53:37.296Z,39.30
2022-07-27T02:56:04.113Z,39.10
2022-07-27T02:58:30.925Z,38.80
2022-07-27T03:00:58.731Z,38.60
2022-07-27T03:03:36.191Z,38.30
2022-07-27T03:06:04.151Z,38.20
2022-07-27T03:08:30.893Z,40.30
2022-07-27T03:10:57.640Z,44.10
2022-07-27T03:13:24.463Z,45.80
2022-07-27T03:15:51.269Z,47.40
2022-07-27T03:18:18.132Z,48.30
2022-07-27T03:20:44.866Z,49.30
2022-07-27T03:23:11.775Z,50.00
2022-07-27T03:25:38.541Z,50.50
2022-07-27T03:28:05.445Z,50.80
2022-07-27T03:30:32.672Z,50.10
2022-07-27T03:32:59.548Z,47.80
2022-07-27T03:35:26.308Z,46.50
2022-07-27T03:37:53.086Z,45.50
2022-07-27T03:40:19.936Z,44.70
2022-07-27T03:42:46.697Z,44.10
2022-07-27T03:45:13.573Z,43.60
2022-07-27T03:47:40.310Z,42.80
2022-07-27T03:50:07.251Z,42.50
2022-07-27T03:52:33.993Z,41.90
2022-07-27T03:55:03.393Z,45.20
2022-07-27T03:57:30.733Z,48.10
2022-07-27T03:59:57.475Z,49.90
2022-07-27T04:02:24.243Z,50.90
2022-07-27T04:04:51.062Z,51.90
2022-07-27T04:07:17.792Z,52.50
2022-07-27T04:09:45.354Z,52.90
2022-07-27T04:12:14.016Z,52.90
2022-07-27T04:14:43.380Z,53.10
2022-07-27T04:17:10.193Z,51.30
2022-07-27T04:19:37.030Z,49.30
2022-07-27T04:22:04.182Z,48.10
2022-07-27T04:24:30.945Z,47.20
2022-07-27T04:26:57.671Z,46.30
2022-07-27T04:29:24.624Z,45.70
2022-07-27T04:31:51.525Z,44.80
2022-07-27T04:34:20.061Z,44.50
2022-07-27T04:36:46.810Z,43.90
2022-07-27T04:39:13.921Z,43.20
2022-07-27T04:41:40.985Z,42.80
2022-07-27T04:44:07.744Z,42.40
2022-07-27T04:46:34.540Z,42.00
2022-07-27T04:49:01.348Z,41.80
2022-07-27T04:51:32.551Z,41.40
2022-07-27T04:54:01.274Z,41.10
2022-07-27T04:56:28.039Z,45.90
2022-07-27T04:58:55.174Z,48.00
2022-07-27T05:01:23.182Z,49.70
2022-07-27T05:03:50.163Z,50.60
2022-07-27T05:06:17.450Z,51.40
2022-07-27T05:08:44.248Z,52.10
2022-07-27T05:11:11.026Z,52.50
2022-07-27T05:13:39.895Z,52.70
2022-07-27T05:16:09.981Z,52.90
2022-07-27T05:18:37.707Z,52.80
2022-07-27T05:21:04.812Z,51.10
2022-07-27T05:23:31.615Z,49.30
2022-07-27T05:25:58.368Z,48.20
2022-07-27T05:28:25.134Z,47.30
2022-07-27T05:30:51.985Z,46.40
2022-07-27T05:33:18.726Z,45.80
2022-07-27T05:35:45.470Z,45.10
2022-07-27T05:38:12.231Z,44.60
2022-07-27T05:40:39.013Z,44.10
2022-07-27T05:43:05.932Z,43.60
2022-07-27T05:45:32.722Z,43.20
2022-07-27T05:47:59.852Z,42.80
2022-07-27T05:50:26.801Z,42.50
2022-07-27T05:52:53.566Z,42.30
2022-07-27T05:55:20.332Z,41.80
2022-07-27T05:57:47.083Z,41.70
2022-07-27T06:00:13.990Z,41.60
2022-07-27T06:02:40.942Z,41.10
2022-07-27T06:05:11.918Z,41.00
2022-07-27T06:08:02.766Z,40.80
2022-07-27T06:10:30.012Z,41.30
2022-07-27T06:12:56.902Z,41.50
2022-07-27T06:15:23.894Z,42.30
2022-07-27T06:17:52.778Z,42.20
2022-07-27T06:20:20.339Z,42.90
2022-07-27T06:22:47.837Z,43.40
2022-07-27T06:25:14.682Z,44.90
2022-07-27T06:27:41.589Z,46.00
2022-07-27T06:30:09.997Z,46.70
2022-07-27T06:32:36.838Z,47.40
2022-07-27T06:35:05.431Z,47.70
2022-07-27T06:37:32.582Z,47.20
2022-07-27T06:39:59.496Z,48.10
2022-07-27T06:42:26.236Z,48.60
2022-07-27T06:44:53.072Z,49.10
2022-07-27T06:47:19.807Z,49.30
2022-07-27T06:49:46.544Z,49.10
2022-07-27T06:52:13.287Z,49.60
2022-07-27T06:54:40.133Z,49.80
2022-07-27T06:57:06.928Z,49.80
2022-07-27T06:59:42.752Z,49.60
2022-07-27T07:02:10.439Z,50.30
2022-07-27T07:04:37.184Z,50.30
2022-07-27T07:07:07.014Z,50.70
2022-07-27T07:09:34.275Z,51.00
2022-07-27T07:12:01.092Z,50.80
2022-07-27T07:14:27.967Z,51.00
2022-07-27T07:16:54.709Z,50.90
2022-07-27T07:19:21.501Z,50.90
2022-07-27T07:21:48.801Z,50.80
2022-07-27T07:24:15.666Z,51.00
2022-07-27T07:26:42.421Z,50.80
2022-07-27T07:29:09.532Z,50.90
2022-07-27T07:31:36.623Z,50.90
2022-07-27T07:34:03.639Z,50.90
2022-07-27T07:36:30.381Z,51.00
2022-07-27T07:38:57.265Z,51.00
2022-07-27T07:41:24.037Z,50.90
2022-07-27T07:43:50.830Z,50.90
2022-07-27T07:46:17.644Z,51.10
2022-07-27T07:48:44.556Z,51.00
2022-07-27T07:51:11.487Z,51.00
2022-07-27T07:53:41.628Z,51.00
2022-07-27T07:56:08.749Z,51.00
2022-07-27T07:58:35.555Z,50.90
2022-07-27T08:01:02.377Z,51.00
2022-07-27T08:03:29.232Z,50.90
2022-07-27T08:05:56.072Z,51.00
2022-07-27T08:08:24.750Z,51.00
2022-07-27T08:10:51.798Z,51.20
2022-07-27T08:13:22.301Z,51.10
2022-07-27T08:15:49.942Z,51.00
2022-07-27T08:18:16.742Z,51.20
2022-07-27T08:20:43.508Z,51.30
2022-07-27T08:23:12.616Z,51.10
2022-07-27T08:25:39.651Z,51.20
2022-07-27T08:28:06.480Z,51.20
2022-07-27T08:30:34.388Z,51.30
2022-07-27T08:33:01.587Z,51.20
2022-07-27T08:35:28.899Z,51.00
2022-07-27T08:37:55.761Z,51.20
2022-07-27T08:40:41.106Z,51.40
2022-07-27T08:43:09.242Z,51.30
2022-07-27T08:45:37.288Z,51.20
2022-07-27T08:48:04.283Z,51.20
2022-07-27T08:50:31.251Z,51.20
2022-07-27T08:53:16.919Z,51.20
2022-07-27T08:55:44.008Z,51.10
2022-07-27T08:58:11.142Z,51.30
2022-07-27T09:00:41.765Z,51.40
2022-07-27T09:03:16.134Z,51.00
2022-07-27T09:05:45.924Z,51.50
2022-07-27T09:08:13.442Z,51.30
2022-07-27T09:10:40.345Z,51.40
2022-07-27T09:13:17.053Z,51.30
2022-07-27T09:16:15.487Z,51.20
2022-07-27T09:18:33.967Z,51.10
2022-07-27T09:21:11.306Z,51.30
2022-07-27T09:23:41.417Z,51.30
2022-07-27T09:26:30.957Z,51.50
2022-07-27T09:29:02.456Z,51.30
2022-07-27T09:31:29.299Z,51.50
2022-07-27T09:33:57.487Z,51.60
2022-07-27T09:36:24.811Z,51.50
2022-07-27T09:39:00.030Z,51.50
2022-07-27T09:41:41.798Z,51.40
2022-07-27T09:46:55.476Z,51.50
2022-07-27T09:49:32.223Z,51.60
2022-07-27T09:52:01.320Z,51.40
2022-07-27T09:54:40.056Z,51.70
2022-07-27T09:57:06.985Z,51.70
2022-07-27T09:59:33.736Z,51.60
2022-07-27T10:02:01.657Z,51.70
2022-07-27T10:04:28.501Z,51.70
2022-07-27T10:07:05.256Z,51.60
2022-07-27T10:09:34.899Z,51.70
2022-07-27T10:12:03.970Z,51.70
2022-07-27T10:14:30.800Z,51.90
2022-07-27T10:16:57.790Z,51.80
2022-07-27T10:19:43.669Z,51.80
2022-07-27T10:22:10.473Z,51.50
2022-07-27T10:24:37.483Z,51.60
2022-07-27T10:27:20.103Z,51.80
2022-07-27T10:29:50.159Z,51.40
2022-07-27T10:32:23.621Z,51.50
2022-07-27T10:34:50.375Z,51.50
2022-07-27T10:37:17.780Z,51.60
2022-07-27T10:39:45.431Z,51.70
2022-07-27T10:42:22.522Z,51.60
2022-07-27T10:45:08.414Z,51.40
2022-07-27T10:47:36.250Z,51.50
2022-07-27T10:50:12.162Z,51.70
2022-07-27T10:52:48.579Z,51.40
2022-07-27T10:55:30.854Z,51.40
2022-07-27T10:57:58.016Z,51.40
2022-07-27T11:00:47.794Z,51.60
2022-07-27T11:03:20.798Z,51.60
2022-07-27T11:06:00.393Z,51.40
2022-07-27T11:08:38.166Z,51.50
2022-07-27T11:11:15.536Z,51.60
2022-07-27T11:13:42.327Z,51.60
2022-07-27T11:16:23.372Z,51.60
2022-07-27T11:18:56.737Z,51.80
2022-07-27T11:21:26.680Z,51.70
2022-07-27T11:23:57.546Z,51.70
2022-07-27T11:26:25.181Z,51.60
2022-07-27T11:28:52.063Z,51.80
2022-07-27T11:31:32.735Z,51.70
2022-07-27T11:34:05.690Z,51.80
2022-07-27T11:36:39.858Z,51.90
2022-07-27T11:39:07.612Z,51.70
2022-07-27T11:42:05.579Z,51.90
2022-07-27T11:44:21.780Z,51.80
2022-07-27T11:46:48.936Z,52.00
2022-07-27T11:49:16.783Z,52.00
2022-07-27T11:51:44.327Z,52.20
2022-07-27T11:54:12.117Z,52.10
2022-07-27T11:56:39.822Z,52.20
2022-07-27T11:59:06.792Z,52.20
2022-07-27T12:01:34.801Z,52.20
2022-07-27T12:04:08.164Z,52.30
2022-07-27T12:06:35.095Z,52.20
2022-07-27T12:09:02.283Z,52.20
2022-07-27T12:11:50.237Z,52.20
2022-07-27T12:14:17.421Z,52.10
2022-07-27T12:16:44.660Z,52.40
2022-07-27T12:19:12.742Z,52.30
2022-07-27T12:21:39.839Z,52.20
2022-07-27T12:24:07.229Z,52.30
2022-07-27T12:26:34.091Z,52.20
2022-07-27T12:29:08.054Z,52.40
2022-07-27T12:31:35.385Z,52.30
2022-07-27T12:34:06.407Z,52.30
2022-07-27T12:36:33.514Z,52.30
2022-07-27T12:39:00.264Z,52.40
2022-07-27T12:41:29.953Z,52.40
2022-07-27T12:44:05.792Z,52.50
2022-07-27T12:46:32.711Z,52.30
2022-07-27T12:48:59.616Z,52.50
2022-07-27T12:51:26.897Z,52.70
2022-07-27T12:53:53.776Z,52.60
2022-07-27T12:56:27.003Z,52.50
2022-07-27T12:59:00.153Z,52.50
2022-07-27T13:01:26.962Z,52.30
2022-07-27T13:03:53.796Z,52.60
2022-07-27T13:06:20.551Z,52.50
2022-07-27T13:08:47.298Z,52.60
2022-07-27T13:11:14.068Z,52.70
2022-07-27T13:13:40.828Z,52.70
2022-07-27T13:16:07.671Z,52.70
2022-07-27T13:18:34.452Z,52.70
2022-07-27T13:21:01.656Z,52.70
2022-07-27T13:23:29.516Z,52.80
2022-07-27T13:25:56.378Z,52.80
2022-07-27T13:28:23.152Z,52.80
2022-07-27T13:30:49.907Z,52.80
2022-07-27T13:33:16.658Z,52.70
2022-07-27T13:35:43.387Z,52.70
2022-07-27T13:38:16.105Z,52.80
2022-07-27T13:40:44.340Z,52.70
2022-07-27T13:43:12.210Z,52.80
2022-07-27T13:45:43.041Z,52.70
2022-07-27T13:48:11.951Z,52.70
2022-07-27T13:50:39.345Z,52.80
2022-07-27T13:53:06.100Z,52.80
2022-07-27T13:55:32.833Z,52.70
2022-07-27T13:57:59.602Z,52.70
2022-07-27T14:00:26.382Z,52.70
2022-07-27T14:02:53.388Z,52.70
2022-07-27T14:05:20.991Z,52.70
2022-07-27T14:07:47.756Z,52.80
2022-07-27T14:10:32.859Z,52.70
2022-07-27T14:13:08.459Z,52.80
2022-07-27T14:15:53.359Z,52.70
2022-07-27T14:18:22.839Z,52.80
2022-07-27T14:20:49.626Z,53.10
2022-07-27T14:23:16.379Z,53.20
2022-07-27T14:25:43.111Z,53.10
2022-07-27T14:28:09.868Z,53.10
2022-07-27T14:30:36.617Z,53.00
2022-07-27T14:33:03.486Z,53.20
2022-07-27T14:35:30.337Z,53.30
2022-07-27T14:37:58.483Z,53.40
2022-07-27T14:40:25.819Z,53.60
2022-07-27T14:42:52.566Z,53.70
2022-07-27T14:45:19.981Z,53.80
2022-07-27T14:47:47.107Z,53.90
2022-07-27T14:50:14.072Z,54.10
2022-07-27T14:52:41.017Z,54.20
2022-07-27T14:55:07.962Z,54.20
2022-07-27T14:57:34.780Z,54.60
2022-07-27T15:00:01.594Z,54.90
2022-07-27T15:02:28.408Z,54.90
2022-07-27T15:04:55.216Z,54.80
2022-07-27T15:07:21.963Z,54.80
2022-07-27T15:09:48.820Z,54.80
2022-07-27T15:12:15.875Z,54.80
2022-07-27T15:14:43.499Z,54.80
2022-07-27T15:17:10.245Z,54.80
2022-07-27T15:19:37.013Z,55.30
2022-07-27T15:22:03.760Z,55.60
2022-07-27T15:24:35.031Z,56.10
2022-07-27T15:27:04.682Z,56.30
2022-07-27T15:29:31.454Z,56.50
2022-07-27T15:31:58.234Z,56.60
2022-07-27T15:34:25.033Z,56.70
2022-07-27T15:36:54.309Z,56.90
2022-07-27T15:39:23.038Z,57.10
2022-07-27T15:41:49.917Z,57.40
2022-07-27T15:44:20.184Z,57.40
2022-07-27T15:46:47.293Z,56.90
2022-07-27T15:49:14.481Z,57.40
2022-07-27T15:51:41.646Z,57.20
2022-07-27T15:54:08.413Z,57.40
2022-07-27T15:56:35.174Z,57.40
2022-07-27T15:59:02.089Z,57.50
2022-07-27T16:01:35.238Z,57.70
2022-07-27T16:04:02.747Z,57.60
2022-07-27T16:06:29.630Z,57.60
2022-07-27T16:08:56.468Z,57.50
2022-07-27T16:11:23.212Z,57.50
2022-07-27T16:13:50.785Z,57.60
2022-07-27T16:16:30.307Z,57.60
2022-07-27T16:18:57.699Z,57.70
2022-07-27T16:21:24.863Z,57.70
2022-07-27T16:23:52.152Z,57.80
2022-07-27T16:26:18.968Z,57.90
2022-07-27T16:28:46.354Z,57.70
2022-07-27T16:31:16.681Z,57.70
2022-07-27T16:33:44.876Z,57.70
2022-07-27T16:36:11.824Z,57.80
2022-07-27T16:38:39.346Z,57.70
2022-07-27T16:41:19.076Z,57.90
2022-07-27T16:43:45.973Z,57.80
2022-07-27T16:46:12.728Z,57.80
2022-07-27T16:48:42.554Z,57.90
2022-07-27T16:51:11.071Z,57.90
2022-07-27T16:53:38.618Z,57.90
2022-07-27T16:56:05.665Z,57.80
2022-07-27T16:58:32.502Z,57.90
2022-07-27T17:00:59.242Z,57.90
2022-07-27T17:03:26.289Z,57.80
2022-07-27T17:05:53.112Z,57.80
2022-07-27T17:08:20.265Z,57.70
2022-07-27T17:10:53.023Z,57.70
2022-07-27T17:13:19.811Z,57.80
2022-07-27T17:15:47.624Z,57.50
2022-07-27T17:18:14.363Z,57.40
2022-07-27T17:20:41.487Z,57.50
2022-07-27T17:23:10.124Z,57.30
2022-07-27T17:25:37.128Z,57.30
2022-07-27T17:28:04.013Z,57.20
2022-07-27T17:30:35.051Z,57.30
2022-07-27T17:33:04.679Z,57.10
2022-07-27T17:35:32.145Z,56.90
2022-07-27T17:38:07.138Z,56.90
2022-07-27T17:40:34.766Z,57.10
2022-07-27T17:43:01.735Z,57.20
2022-07-27T17:45:28.522Z,56.90
2022-07-27T17:47:55.347Z,57.00
2022-07-27T17:50:22.144Z,57.00
2022-07-27T17:52:48.921Z,57.10
2022-07-27T17:55:15.652Z,57.00
2022-07-27T17:57:43.736Z,57.00
2022-07-27T18:00:11.101Z,57.30
2022-07-27T18:02:37.872Z,57.40
2022-07-27T18:05:04.889Z,57.60
2022-07-27T18:07:38.839Z,57.70
2022-07-27T18:10:07.671Z,57.70
2022-07-27T18:12:35.201Z,57.90
2022-07-27T18:15:20.347Z,58.10
2022-07-27T18:17:47.126Z,58.00
2022-07-27T18:20:13.876Z,58.10
2022-07-27T18:22:40.973Z,58.10
2022-07-27T18:25:07.998Z,57.80
2022-07-27T18:27:35.596Z,57.80
2022-07-27T18:30:02.807Z,58.10
2022-07-27T18:32:29.548Z,58.00
2022-07-27T18:34:56.361Z,58.20
2022-07-27T18:37:23.106Z,58.10
2022-07-27T18:39:49.877Z,58.40
2022-07-27T18:42:16.757Z,58.60
2022-07-27T18:44:43.556Z,58.50
2022-07-27T18:47:10.311Z,58.70
2022-07-27T18:49:37.169Z,58.60
2022-07-27T18:52:04.240Z,59.00
2022-07-27T18:54:31.015Z,59.00
2022-07-27T18:56:57.782Z,58.90
2022-07-27T18:59:24.573Z,59.10
2022-07-27T19:01:51.751Z,59.20
2022-07-27T19:04:18.745Z,59.20
2022-07-27T19:06:46.103Z,59.30
2022-07-27T19:09:13.237Z,59.40
2022-07-27T19:11:40.280Z,59.40
2022-07-27T19:14:07.079Z,59.50
2022-07-27T19:16:36.581Z,59.60
2022-07-27T19:19:03.462Z,59.50
2022-07-27T19:21:30.928Z,59.60
2022-07-27T19:23:57.882Z,59.70
2022-07-27T19:26:24.655Z,59.70
2022-07-27T19:28:51.437Z,59.80
2022-07-27T19:31:22.198Z,59.70
2022-07-27T19:33:49.745Z,59.90
2022-07-27T19:36:16.849Z,60.00
2022-07-27T19:38:43.608Z,60.10
2022-07-27T19:41:10.428Z,60.40
2022-07-27T19:43:37.165Z,60.10
2022-07-27T19:46:04.105Z,60.30
2022-07-27T19:48:30.981Z,60.10
2022-07-27T19:50:59.980Z,59.70
2022-07-27T19:53:30.113Z,59.70
2022-07-27T19:55:56.847Z,60.80
2022-07-27T19:58:23.635Z,60.40
2022-07-27T20:00:50.483Z,60.10
2022-07-27T20:03:20.450Z,60.00
2022-07-27T20:05:47.368Z,60.00
2022-07-27T20:08:14.321Z,60.20
2022-07-27T20:10:41.133Z,60.00
2022-07-27T20:13:08.210Z,60.30
2022-07-27T20:15:34.969Z,60.10
2022-07-27T20:18:01.806Z,60.30
2022-07-27T20:20:28.589Z,60.70
2022-07-27T20:22:55.471Z,60.60
2022-07-27T20:25:22.900Z,60.70
2022-07-27T20:27:49.689Z,60.80
2022-07-27T20:30:17.591Z,60.80
2022-07-27T20:32:44.598Z,60.90
2022-07-27T20:35:11.461Z,60.90
2022-07-27T20:37:38.755Z,60.90
2022-07-27T20:40:06.004Z,60.90
2022-07-27T20:42:32.824Z,60.80
2022-07-27T20:44:59.774Z,61.10
2022-07-27T20:47:31.138Z,60.80
2022-07-27T20:50:03.485Z,60.70
2022-07-27T20:52:30.272Z,60.80
2022-07-27T20:54:57.140Z,60.80
2022-07-27T20:57:23.884Z,60.80
2022-07-27T20:59:50.657Z,60.80
2022-07-27T21:02:17.542Z,60.90
2022-07-27T21:04:44.368Z,61.10
2022-07-27T21:07:11.111Z,60.80
2022-07-27T21:09:37.900Z,60.80
2022-07-27T21:12:07.384Z,60.90
2022-07-27T21:14:34.152Z,60.90
2022-07-27T21:17:03.535Z,60.80
2022-07-27T21:19:30.384Z,61.00
2022-07-27T21:21:57.154Z,60.80
2022-07-27T21:24:23.927Z,60.80
2022-07-27T21:26:50.900Z,60.90
2022-07-27T21:29:17.817Z,60.80
2022-07-27T21:31:49.258Z,60.90
2022-07-27T21:34:17.436Z,60.70
2022-07-27T21:36:44.290Z,60.90
2022-07-27T21:39:11.051Z,60.90
2022-07-27T21:41:38.749Z,60.90
2022-07-27T21:44:05.586Z,60.90
2022-07-27T21:46:32.427Z,60.90
2022-07-27T21:48:59.296Z,60.90
2022-07-27T21:51:26.165Z,61.00
2022-07-27T21:53:52.963Z,61.10
2022-07-27T21:56:19.749Z,60.90
2022-07-27T21:58:47.978Z,60.90
2022-07-27T22:01:15.146Z,60.90
2022-07-27T22:03:42.378Z,61.00
2022-07-27T22:06:09.907Z,61.00
2022-07-27T22:08:36.676Z,60.90
2022-07-27T22:11:03.574Z,61.10
2022-07-27T22:13:30.498Z,61.00
2022-07-27T22:15:57.317Z,60.90
2022-07-27T22:18:24.125Z,60.90
2022-07-27T22:20:50.944Z,61.00
2022-07-27T22:23:17.700Z,60.90
2022-07-27T22:25:44.534Z,60.90
2022-07-27T22:28:11.293Z,61.00
2022-07-27T22:30:40.177Z,60.90
2022-07-27T22:33:07.590Z,60.90
2022-07-27T22:35:34.482Z,61.10
2022-07-27T22:38:01.364Z,61.10
2022-07-27T22:41:23.738Z,60.00
2022-07-27T22:43:50.748Z,60.90
2022-07-27T22:46:19.894Z,60.90
2022-07-27T22:48:50.482Z,60.80
2022-07-27T22:51:17.248Z,61.00
2022-07-27T22:53:44.047Z,60.60
2022-07-27T22:56:10.819Z,60.70
2022-07-27T22:58:37.564Z,60.70
2022-07-27T23:01:04.369Z,60.60
2022-07-27T23:03:31.140Z,60.70
2022-07-27T23:05:57.921Z,60.80
2022-07-27T23:08:24.709Z,60.70
2022-07-27T23:10:51.635Z,60.60
2022-07-27T23:13:18.779Z,60.50
2022-07-27T23:15:46.023Z,60.60
2022-07-27T23:18:12.968Z,60.60
2022-07-27T23:20:39.839Z,60.60
2022-07-27T23:23:15.844Z,60.70
2022-07-27T23:25:47.170Z,60.20
2022-07-27T23:28:14.082Z,60.80
2022-07-27T23:30:40.832Z,60.60
2022-07-27T23:33:07.619Z,60.70
2022-07-27T23:35:34.358Z,60.50
2022-07-27T23:38:03.649Z,60.50
2022-07-27T23:40:30.432Z,60.40
2022-07-27T23:42:57.189Z,60.40
2022-07-27T23:45:23.941Z,60.30
2022-07-27T23:47:50.690Z,60.30
2022-07-27T23:50:17.414Z,60.20
2022-07-27T23:52:44.212Z,60.10
2022-07-27T23:55:10.984Z,60.10
2022-07-27T23:57:37.718Z,60.10
